sensor_id;sensor_type;location;lat;lon;timestamp;pressure;altitude;pressure_sealevel;temperature;humidity
66857;BME280;53766;50.280;19.160;2022-09-09T00:02:22;98125.91;;;23.73;52.51
66857;BME280;53766;50.280;19.160;2022-09-09T00:07:55;98113.53;;;23.72;52.45
66857;BME280;53766;50.280;19.160;2022-09-09T00:10:37;98122.41;;;23.73;52.53
66857;BME280;53766;50.280;19.160;2022-09-09T00:15:55;98118.91;;;23.72;52.43
66857;BME280;53766;50.280;19.160;2022-09-09T00:21:18;98112.47;;;23.73;52.66
66857;BME280;53766;50.280;19.160;2022-09-09T00:23:50;98120.28;;;23.75;52.81
66857;BME280;53766;50.280;19.160;2022-09-09T00:26:38;98122.97;;;23.75;52.62
66857;BME280;53766;50.280;19.160;2022-09-09T00:32:09;98119.28;;;23.76;52.08
66857;BME280;53766;50.280;19.160;2022-09-09T00:35:02;98121.38;;;23.74;51.81
66857;BME280;53766;50.280;19.160;2022-09-09T00:37:30;98125.91;;;23.73;52.08
66857;BME280;53766;50.280;19.160;2022-09-09T00:40:01;98128.84;;;23.72;52.01
66857;BME280;53766;50.280;19.160;2022-09-09T00:42:43;98118.91;;;23.72;51.73
66857;BME280;53766;50.280;19.160;2022-09-09T00:48:10;98129.19;;;23.75;52.13
66857;BME280;53766;50.280;19.160;2022-09-09T00:50:44;98130.59;;;23.78;52.45
66857;BME280;53766;50.280;19.160;2022-09-09T00:53:32;98131.97;;;23.80;52.40
66857;BME280;53766;50.280;19.160;2022-09-09T00:56:17;98137.34;;;23.80;52.19
66857;BME280;53766;50.280;19.160;2022-09-09T00:59:16;98141.66;;;23.81;52.16
66857;BME280;53766;50.280;19.160;2022-09-09T01:01:54;98144.91;;;23.84;51.92
66857;BME280;53766;50.280;19.160;2022-09-09T01:04:34;98142.22;;;23.84;51.93
66857;BME280;53766;50.280;19.160;2022-09-09T01:07:17;98148.41;;;23.84;52.21
66857;BME280;53766;50.280;19.160;2022-09-09T01:10:07;98147.38;;;23.85;52.16
66857;BME280;53766;50.280;19.160;2022-09-09T01:12:42;98158.94;;;23.86;51.88
66857;BME280;53766;50.280;19.160;2022-09-09T01:15:15;98153.56;;;23.86;52.11
66857;BME280;53766;50.280;19.160;2022-09-09T01:20:23;98161.63;;;23.86;51.67
66857;BME280;53766;50.280;19.160;2022-09-09T01:23:16;98164.06;;;23.87;51.82
66857;BME280;53766;50.280;19.160;2022-09-09T01:28:34;98163.00;;;23.88;52.01
66857;BME280;53766;50.280;19.160;2022-09-09T01:31:06;98163.28;;;23.87;51.88
66857;BME280;53766;50.280;19.160;2022-09-09T01:33:34;98160.06;;;23.90;51.84
66857;BME280;53766;50.280;19.160;2022-09-09T01:38:59;98165.44;;;23.90;51.66
66857;BME280;53766;50.280;19.160;2022-09-09T01:41:27;98163.56;;;23.90;51.53
66857;BME280;53766;50.280;19.160;2022-09-09T01:43:55;98169.75;;;23.91;51.74
66857;BME280;53766;50.280;19.160;2022-09-09T01:46:23;98169.75;;;23.91;51.70
66857;BME280;53766;50.280;19.160;2022-09-09T01:48:52;98166.03;;;23.92;51.62
66857;BME280;53766;50.280;19.160;2022-09-09T01:51:20;98169.75;;;23.91;51.57
66857;BME280;53766;50.280;19.160;2022-09-09T01:53:48;98167.06;;;23.91;51.46
66857;BME280;53766;50.280;19.160;2022-09-09T01:56:24;98166.84;;;23.92;51.52
66857;BME280;53766;50.280;19.160;2022-09-09T02:02:00;98166.03;;;23.92;51.28
66857;BME280;53766;50.280;19.160;2022-09-09T02:07:08;98167.63;;;23.93;51.44
66857;BME280;53766;50.280;19.160;2022-09-09T02:09:39;98167.63;;;23.93;51.38
66857;BME280;53766;50.280;19.160;2022-09-09T02:12:13;98178.41;;;23.93;51.49
66857;BME280;53766;50.280;19.160;2022-09-09T02:14:50;98179.47;;;23.92;51.52
66857;BME280;53766;50.280;19.160;2022-09-09T02:17:26;98183.19;;;23.91;51.34
66857;BME280;53766;50.280;19.160;2022-09-09T02:20:07;98179.47;;;23.92;51.29
66857;BME280;53766;50.280;19.160;2022-09-09T02:22:37;98179.47;;;23.92;51.39
66857;BME280;53766;50.280;19.160;2022-09-09T02:25:08;98177.59;;;23.92;51.04
66857;BME280;53766;50.280;19.160;2022-09-09T02:27:38;98182.16;;;23.92;51.43
66857;BME280;53766;50.280;19.160;2022-09-09T02:30:08;98182.16;;;23.92;51.05
66857;BME280;53766;50.280;19.160;2022-09-09T02:32:37;98193.72;;;23.92;51.39
66857;BME280;53766;50.280;19.160;2022-09-09T02:35:09;98194.53;;;23.93;51.24
66857;BME280;53766;50.280;19.160;2022-09-09T02:37:40;98204.47;;;23.92;51.29
66857;BME280;53766;50.280;19.160;2022-09-09T02:40:11;98205.28;;;23.93;51.12
66857;BME280;53766;50.280;19.160;2022-09-09T02:42:43;98205.28;;;23.93;51.29
66857;BME280;53766;50.280;19.160;2022-09-09T02:45:14;98199.09;;;23.92;50.98
66857;BME280;53766;50.280;19.160;2022-09-09T02:50:25;98219.81;;;23.92;50.89
66857;BME280;53766;50.280;19.160;2022-09-09T02:53:22;98214.44;;;23.92;50.92
66857;BME280;53766;50.280;19.160;2022-09-09T02:56:04;98214.44;;;23.92;50.82
66857;BME280;53766;50.280;19.160;2022-09-09T02:58:33;98226.81;;;23.93;50.72
66857;BME280;53766;50.280;19.160;2022-09-09T03:01:01;98227.88;;;23.92;50.85
66857;BME280;53766;50.280;19.160;2022-09-09T03:03:31;98230.56;;;23.92;50.72
66857;BME280;53766;50.280;19.160;2022-09-09T03:05:59;98229.75;;;23.91;50.92
66857;BME280;53766;50.280;19.160;2022-09-09T03:08:27;98228.94;;;23.91;50.75
66857;BME280;53766;50.280;19.160;2022-09-09T03:10:55;98234.31;;;23.91;50.88
66857;BME280;53766;50.280;19.160;2022-09-09T03:13:25;98232.69;;;23.90;50.64
66857;BME280;53766;50.280;19.160;2022-09-09T03:15:53;98234.31;;;23.91;50.60
66857;BME280;53766;50.280;19.160;2022-09-09T03:18:21;98234.31;;;23.91;50.67
66857;BME280;53766;50.280;19.160;2022-09-09T03:20:48;98233.50;;;23.90;50.47
66857;BME280;53766;50.280;19.160;2022-09-09T03:23:16;98237.00;;;23.91;50.73
66857;BME280;53766;50.280;19.160;2022-09-09T03:25:47;98238.06;;;23.90;50.53
66857;BME280;53766;50.280;19.160;2022-09-09T03:28:15;98231.88;;;23.89;50.69
66857;BME280;53766;50.280;19.160;2022-09-09T03:30:43;98226.50;;;23.89;50.31
66857;BME280;53766;50.280;19.160;2022-09-09T03:33:10;98239.94;;;23.89;50.59
66857;BME280;53766;50.280;19.160;2022-09-09T03:35:38;98231.03;;;23.89;50.45
66857;BME280;53766;50.280;19.160;2022-09-09T03:38:06;98239.13;;;23.89;50.46
66857;BME280;53766;50.280;19.160;2022-09-09T03:40:34;98245.56;;;23.88;50.14
66857;BME280;53766;50.280;19.160;2022-09-09T03:43:02;98245.81;;;23.86;50.33
66857;BME280;53766;50.280;19.160;2022-09-09T03:45:29;98254.13;;;23.85;50.27
66857;BME280;53766;50.280;19.160;2022-09-09T03:47:57;98262.19;;;23.85;50.19
66857;BME280;53766;50.280;19.160;2022-09-09T03:50:25;98255.19;;;23.84;49.86
66857;BME280;53766;50.280;19.160;2022-09-09T03:52:52;98251.91;;;23.81;49.90
66857;BME280;53766;50.280;19.160;2022-09-09T03:55:20;98253.56;;;23.83;49.84
66857;BME280;53766;50.280;19.160;2022-09-09T03:57:47;98256.25;;;23.83;49.77
66857;BME280;53766;50.280;19.160;2022-09-09T04:00:15;98254.38;;;23.83;50.00
66857;BME280;53766;50.280;19.160;2022-09-09T04:02:42;98260.56;;;23.84;50.19
66857;BME280;53766;50.280;19.160;2022-09-09T04:05:10;98252.50;;;23.84;49.68
66857;BME280;53766;50.280;19.160;2022-09-09T04:07:38;98259.75;;;23.83;49.96
66857;BME280;53766;50.280;19.160;2022-09-09T04:10:06;98260.56;;;23.84;49.92
66857;BME280;53766;50.280;19.160;2022-09-09T04:12:34;98260.56;;;23.84;49.54
66857;BME280;53766;50.280;19.160;2022-09-09T04:15:03;98263.25;;;23.84;49.47
66857;BME280;53766;50.280;19.160;2022-09-09T04:17:30;98259.97;;;23.81;49.50
66857;BME280;53766;50.280;19.160;2022-09-09T04:19:58;98260.56;;;23.84;49.63
66857;BME280;53766;50.280;19.160;2022-09-09T04:22:26;98275.06;;;23.83;49.51
66857;BME280;53766;50.280;19.160;2022-09-09T04:24:53;98269.69;;;23.83;49.27
66857;BME280;53766;50.280;19.160;2022-09-09T04:27:21;98272.38;;;23.83;49.53
66857;BME280;53766;50.280;19.160;2022-09-09T04:29:48;98275.06;;;23.83;49.42
66857;BME280;53766;50.280;19.160;2022-09-09T04:32:16;98274.25;;;23.82;49.46
66857;BME280;53766;50.280;19.160;2022-09-09T04:34:43;98271.53;;;23.82;49.32
66857;BME280;53766;50.280;19.160;2022-09-09T04:37:12;98268.06;;;23.81;49.32
66857;BME280;53766;50.280;19.160;2022-09-09T04:39:39;98266.44;;;23.80;49.22
66857;BME280;53766;50.280;19.160;2022-09-09T04:42:07;98265.59;;;23.80;48.94
66857;BME280;53766;50.280;19.160;2022-09-09T04:44:34;98266.44;;;23.80;48.94
66857;BME280;53766;50.280;19.160;2022-09-09T04:47:02;98271.81;;;23.80;48.93
66857;BME280;53766;50.280;19.160;2022-09-09T04:49:29;98271.81;;;23.80;48.85
66857;BME280;53766;50.280;19.160;2022-09-09T04:51:58;98277.19;;;23.80;49.07
66857;BME280;53766;50.280;19.160;2022-09-09T04:54:26;98266.44;;;23.80;48.87
66857;BME280;53766;50.280;19.160;2022-09-09T04:56:53;98277.19;;;23.80;48.71
66857;BME280;53766;50.280;19.160;2022-09-09T04:59:23;98282.56;;;23.80;48.75
66857;BME280;53766;50.280;19.160;2022-09-09T05:01:50;98284.41;;;23.80;48.98
66857;BME280;53766;50.280;19.160;2022-09-09T05:04:19;98287.94;;;23.80;48.94
66857;BME280;53766;50.280;19.160;2022-09-09T05:06:46;98291.69;;;23.79;48.99
66857;BME280;53766;50.280;19.160;2022-09-09T05:09:14;98287.94;;;23.80;49.07
66857;BME280;53766;50.280;19.160;2022-09-09T05:11:41;98282.56;;;23.80;48.92
66857;BME280;53766;50.280;19.160;2022-09-09T05:14:09;98280.69;;;23.81;49.14
66857;BME280;53766;50.280;19.160;2022-09-09T05:16:38;98286.31;;;23.79;49.18
66857;BME280;53766;50.280;19.160;2022-09-09T05:19:06;98280.13;;;23.79;48.80
66857;BME280;53766;50.280;19.160;2022-09-09T05:21:36;98287.59;;;23.77;49.08
66857;BME280;53766;50.280;19.160;2022-09-09T05:24:04;98293.78;;;23.77;49.00
66857;BME280;53766;50.280;19.160;2022-09-09T05:26:31;98299.75;;;23.79;49.41
66857;BME280;53766;50.280;19.160;2022-09-09T05:28:59;98294.13;;;23.81;49.11
66857;BME280;53766;50.280;19.160;2022-09-09T05:31:29;98296.59;;;23.83;49.02
66857;BME280;53766;50.280;19.160;2022-09-09T05:33:57;98297.63;;;23.81;49.05
66857;BME280;53766;50.280;19.160;2022-09-09T05:36:26;98293.31;;;23.80;48.83
66857;BME280;53766;50.280;19.160;2022-09-09T05:38:53;98298.69;;;23.80;48.99
66857;BME280;53766;50.280;19.160;2022-09-09T05:41:21;98299.50;;;23.81;49.01
66857;BME280;53766;50.280;19.160;2022-09-09T05:43:50;98293.91;;;23.83;48.87
66857;BME280;53766;50.280;19.160;2022-09-09T05:46:20;98299.84;;;23.85;48.91
66857;BME280;53766;50.280;19.160;2022-09-09T05:48:49;98302.53;;;23.85;48.61
66857;BME280;53766;50.280;19.160;2022-09-09T05:51:23;98297.75;;;23.87;48.83
66857;BME280;53766;50.280;19.160;2022-09-09T05:53:52;98303.66;;;23.89;48.79
66857;BME280;53766;50.280;19.160;2022-09-09T05:56:24;98298.03;;;23.90;48.53
66857;BME280;53766;50.280;19.160;2022-09-09T05:58:53;98309.63;;;23.91;48.71
66857;BME280;53766;50.280;19.160;2022-09-09T06:03:50;98307.50;;;23.93;48.74
66857;BME280;53766;50.280;19.160;2022-09-09T06:06:20;98299.44;;;23.93;48.80
66857;BME280;53766;50.280;19.160;2022-09-09T06:08:51;98295.69;;;23.94;48.72
66857;BME280;53766;50.280;19.160;2022-09-09T06:11:24;98299.78;;;23.96;48.76
66857;BME280;53766;50.280;19.160;2022-09-09T06:13:53;98304.91;;;23.98;48.53
66857;BME280;53766;50.280;19.160;2022-09-09T06:16:23;98304.91;;;23.98;48.54
66857;BME280;53766;50.280;19.160;2022-09-09T06:18:53;98308.19;;;24.00;48.52
66857;BME280;53766;50.280;19.160;2022-09-09T06:23:50;98305.22;;;24.01;48.49
66857;BME280;53766;50.280;19.160;2022-09-09T06:26:32;98311.44;;;24.02;48.64
66857;BME280;53766;50.280;19.160;2022-09-09T06:29:01;98306.06;;;24.02;48.38
66857;BME280;53766;50.280;19.160;2022-09-09T06:31:32;98308.19;;;24.00;48.75
66857;BME280;53766;50.280;19.160;2022-09-09T06:34:03;98308.19;;;24.00;48.52
66857;BME280;53766;50.280;19.160;2022-09-09T06:36:33;98304.56;;;23.94;48.88
66857;BME280;53766;50.280;19.160;2022-09-09T06:39:02;98310.69;;;23.90;49.02
66857;BME280;53766;50.280;19.160;2022-09-09T06:41:31;98307.75;;;23.91;49.00
66857;BME280;53766;50.280;19.160;2022-09-09T06:43:59;98306.69;;;23.92;48.92
66857;BME280;53766;50.280;19.160;2022-09-09T06:46:28;98301.66;;;23.96;49.15
66857;BME280;53766;50.280;19.160;2022-09-09T06:48:57;98305.97;;;23.97;48.88
66857;BME280;53766;50.280;19.160;2022-09-09T06:51:31;98302.47;;;23.96;49.11
66857;BME280;53766;50.280;19.160;2022-09-09T06:54:00;98308.19;;;24.00;48.84
66857;BME280;53766;50.280;19.160;2022-09-09T06:56:37;98311.44;;;24.02;48.84
66857;BME280;53766;50.280;19.160;2022-09-09T06:59:08;98313.06;;;24.03;48.76
66857;BME280;53766;50.280;19.160;2022-09-09T07:01:38;98315.50;;;24.05;48.93
66857;BME280;53766;50.280;19.160;2022-09-09T07:04:08;98312.56;;;24.06;49.04
66857;BME280;53766;50.280;19.160;2022-09-09T07:06:39;98310.44;;;24.08;48.90
66857;BME280;53766;50.280;19.160;2022-09-09T07:09:09;98306.94;;;24.08;48.49
66857;BME280;53766;50.280;19.160;2022-09-09T07:11:39;98310.13;;;24.05;49.15
66857;BME280;53766;50.280;19.160;2022-09-09T07:14:09;98308.81;;;24.07;48.92
66857;BME280;53766;50.280;19.160;2022-09-09T07:16:36;98298.56;;;24.04;48.97
66857;BME280;53766;50.280;19.160;2022-09-09T07:19:05;98298.22;;;24.00;49.18
66857;BME280;53766;50.280;19.160;2022-09-09T07:21:33;98300.19;;;24.05;49.01
66857;BME280;53766;50.280;19.160;2022-09-09T07:24:00;98298.06;;;24.07;48.87
66857;BME280;53766;50.280;19.160;2022-09-09T07:26:30;98302.94;;;24.10;49.08
66857;BME280;53766;50.280;19.160;2022-09-09T07:28:57;98304.59;;;24.11;49.08
66857;BME280;53766;50.280;19.160;2022-09-09T07:31:30;98302.13;;;24.10;48.88
66857;BME280;53766;50.280;19.160;2022-09-09T07:33:59;98295.94;;;24.09;48.67
66857;BME280;53766;50.280;19.160;2022-09-09T07:36:29;98283.53;;;24.08;48.92
66857;BME280;53766;50.280;19.160;2022-09-09T07:39:03;98284.09;;;24.10;49.06
66857;BME280;53766;50.280;19.160;2022-09-09T07:41:37;98295.94;;;24.09;48.83
66857;BME280;53766;50.280;19.160;2022-09-09T07:44:07;98294.06;;;24.10;49.11
66857;BME280;53766;50.280;19.160;2022-09-09T07:46:36;98292.19;;;24.10;48.83
66857;BME280;53766;50.280;19.160;2022-09-09T07:49:03;98304.09;;;24.14;49.14
66857;BME280;53766;50.280;19.160;2022-09-09T07:51:34;98301.97;;;24.16;49.12
66857;BME280;53766;50.280;19.160;2022-09-09T07:54:06;98303.63;;;24.17;48.63
66857;BME280;53766;50.280;19.160;2022-09-09T07:56:33;98306.88;;;24.19;48.97
66857;BME280;53766;50.280;19.160;2022-09-09T07:59:01;98302.06;;;24.21;48.88
66857;BME280;53766;50.280;19.160;2022-09-09T08:01:32;98317.13;;;24.22;48.47
66857;BME280;53766;50.280;19.160;2022-09-09T08:04:03;98315.03;;;24.25;48.56
66857;BME280;53766;50.280;19.160;2022-09-09T08:06:38;98323.03;;;24.19;48.72
66857;BME280;53766;50.280;19.160;2022-09-09T08:09:07;98321.94;;;24.20;48.80
66857;BME280;53766;50.280;19.160;2022-09-09T08:11:36;98324.13;;;24.23;48.49
66857;BME280;53766;50.280;19.160;2022-09-09T08:14:09;98319.34;;;24.26;48.77
66857;BME280;53766;50.280;19.160;2022-09-09T08:16:39;98316.16;;;24.29;48.36
66857;BME280;53766;50.280;19.160;2022-09-09T08:19:07;98323.50;;;24.33;48.50
66857;BME280;53766;50.280;19.160;2022-09-09T08:21:36;98318.91;;;24.34;48.38
66857;BME280;53766;50.280;19.160;2022-09-09T08:24:04;98319.09;;;24.27;48.27
66857;BME280;53766;50.280;19.160;2022-09-09T08:26:38;98323.16;;;24.30;48.31
66857;BME280;53766;50.280;19.160;2022-09-09T08:29:07;98327.25;;;24.32;48.53
66857;BME280;53766;50.280;19.160;2022-09-09T08:31:49;98329.69;;;24.34;48.49
66857;BME280;53766;50.280;19.160;2022-09-09T08:34:18;98330.50;;;24.34;48.25
66857;BME280;53766;50.280;19.160;2022-09-09T08:36:49;98321.03;;;24.32;48.07
66857;BME280;53766;50.280;19.160;2022-09-09T08:39:18;98320.75;;;24.28;47.78
66857;BME280;53766;50.280;19.160;2022-09-09T08:55:27;98319.84;;;24.39;48.04
66857;BME280;53766;50.280;19.160;2022-09-09T08:57:58;98316.88;;;24.41;48.19
66857;BME280;53766;50.280;19.160;2022-09-09T09:00:41;98315.81;;;24.42;47.97
66857;BME280;53766;50.280;19.160;2022-09-09T09:09:28;98320.25;;;24.48;47.87
66857;BME280;53766;50.280;19.160;2022-09-09T09:12:00;98315.81;;;24.42;47.86
66857;BME280;53766;50.280;19.160;2022-09-09T09:14:30;98314.19;;;24.41;47.52
66857;BME280;53766;50.280;19.160;2022-09-09T09:17:06;98320.72;;;24.45;47.74
66857;BME280;53766;50.280;19.160;2022-09-09T09:19:39;98316.97;;;24.46;48.03
66857;BME280;53766;50.280;19.160;2022-09-09T09:22:17;98321.88;;;24.49;47.54
66857;BME280;53766;50.280;19.160;2022-09-09T09:27:40;98327.63;;;24.41;47.21
66857;BME280;53766;50.280;19.160;2022-09-09T09:30:20;98322.81;;;24.43;47.26
66857;BME280;53766;50.280;19.160;2022-09-09T09:35:26;98313.19;;;24.47;47.23
66857;BME280;53766;50.280;19.160;2022-09-09T09:37:54;98314.38;;;24.51;47.22
66857;BME280;53766;50.280;19.160;2022-09-09T09:40:52;98320.09;;;24.55;47.03
66857;BME280;53766;50.280;19.160;2022-09-09T09:43:36;98318.13;;;24.50;46.75
66857;BME280;53766;50.280;19.160;2022-09-09T09:46:19;98311.00;;;24.44;46.51
66857;BME280;53766;50.280;19.160;2022-09-09T09:49:02;98318.44;;;24.37;46.58
66857;BME280;53766;50.280;19.160;2022-09-09T09:51:31;98315.50;;;24.38;46.84
66857;BME280;53766;50.280;19.160;2022-09-09T09:54:21;98307.00;;;24.47;46.96
66857;BME280;53766;50.280;19.160;2022-09-09T09:56:51;98303.59;;;24.51;46.64
66857;BME280;53766;50.280;19.160;2022-09-09T10:02:22;98308.81;;;24.58;46.63
66857;BME280;53766;50.280;19.160;2022-09-09T10:05:03;98308.00;;;24.57;46.64
66857;BME280;53766;50.280;19.160;2022-09-09T10:07:31;98311.09;;;24.49;46.03
66857;BME280;53766;50.280;19.160;2022-09-09T10:10:00;98313.19;;;24.47;45.88
66857;BME280;53766;50.280;19.160;2022-09-09T10:16:16;98307.28;;;24.28;45.30
66857;BME280;53766;50.280;19.160;2022-09-09T10:18:48;98308.00;;;24.23;45.21
66857;BME280;53766;50.280;19.160;2022-09-09T10:24:55;98319.75;;;24.17;44.84
66857;BME280;53766;50.280;19.160;2022-09-09T10:38:41;98336.72;;;24.18;44.36
66857;BME280;53766;50.280;19.160;2022-09-09T10:41:40;98332.13;;;24.18;44.96
66857;BME280;53766;50.280;19.160;2022-09-09T10:44:24;98336.56;;;24.25;45.53
66857;BME280;53766;50.280;19.160;2022-09-09T10:50:12;98331.50;;;24.28;44.98
66857;BME280;53766;50.280;19.160;2022-09-09T10:55:42;98325.28;;;24.28;44.96
66857;BME280;53766;50.280;19.160;2022-09-09T10:58:27;98338.50;;;24.29;45.02
66857;BME280;53766;50.280;19.160;2022-09-09T11:01:02;98332.78;;;24.26;44.35
66857;BME280;53766;50.280;19.160;2022-09-09T11:03:38;98336.06;;;24.28;44.07
66857;BME280;53766;50.280;19.160;2022-09-09T11:06:14;98334.91;;;24.23;43.88
66857;BME280;53766;50.280;19.160;2022-09-09T11:08:43;98338.91;;;24.21;44.13
66857;BME280;53766;50.280;19.160;2022-09-09T11:11:15;98326.28;;;24.21;44.06
66857;BME280;53766;50.280;19.160;2022-09-09T11:17:04;98326.59;;;24.08;43.34
66857;BME280;53766;50.280;19.160;2022-09-09T11:19:42;98331.16;;;24.08;42.77
66857;BME280;53766;50.280;19.160;2022-09-09T11:22:27;98331.38;;;24.06;43.16
66857;BME280;53766;50.280;19.160;2022-09-09T11:25:17;98336.22;;;24.04;43.42
66857;BME280;53766;50.280;19.160;2022-09-09T11:28:03;98331.31;;;24.01;43.56
66857;BME280;53766;50.280;19.160;2022-09-09T11:36:24;98345.84;;;24.00;43.75
66857;BME280;53766;50.280;19.160;2022-09-09T11:39:01;98342.56;;;23.98;43.00
66857;BME280;53766;50.280;19.160;2022-09-09T11:41:37;98340.94;;;23.97;42.68
66857;BME280;53766;50.280;19.160;2022-09-09T11:44:20;98335.53;;;23.97;42.71
66857;BME280;53766;50.280;19.160;2022-09-09T11:46:50;98327.00;;;24.00;42.49
66857;BME280;53766;50.280;19.160;2022-09-09T11:49:30;98343.63;;;23.97;42.58
66857;BME280;53766;50.280;19.160;2022-09-09T11:52:22;98337.09;;;23.93;42.23
66857;BME280;53766;50.280;19.160;2022-09-09T11:54:51;98331.56;;;23.99;42.43
66857;BME280;53766;50.280;19.160;2022-09-09T11:57:26;98329.69;;;24.00;41.69
66857;BME280;53766;50.280;19.160;2022-09-09T11:59:58;98330.16;;;23.97;41.67
66857;BME280;53766;50.280;19.160;2022-09-09T12:02:28;98326.66;;;23.96;41.77
66857;BME280;53766;50.280;19.160;2022-09-09T12:10:30;98322.69;;;24.16;42.13
66857;BME280;53766;50.280;19.160;2022-09-09T12:13:22;98332.13;;;24.18;42.62
66857;BME280;53766;50.280;19.160;2022-09-09T12:15:58;98330.03;;;24.20;41.86
66857;BME280;53766;50.280;19.160;2022-09-09T12:18:32;98328.88;;;24.16;41.25
66857;BME280;53766;50.280;19.160;2022-09-09T12:21:12;98324.00;;;24.13;41.19
66857;BME280;53766;50.280;19.160;2022-09-09T12:28:58;98332.94;;;24.19;40.78
66857;BME280;53766;50.280;19.160;2022-09-09T12:31:56;98339.16;;;24.19;41.83
66857;BME280;53766;50.280;19.160;2022-09-09T12:37:33;98331.16;;;24.25;40.90
66857;BME280;53766;50.280;19.160;2022-09-09T12:40:06;98330.19;;;24.31;41.21
66857;BME280;53766;50.280;19.160;2022-09-09T12:42:45;98328.94;;;24.38;41.16
66857;BME280;53766;50.280;19.160;2022-09-09T12:47:49;98332.78;;;24.42;41.16
66857;BME280;53766;50.280;19.160;2022-09-09T12:50:23;98335.25;;;24.44;41.17
66857;BME280;53766;50.280;19.160;2022-09-09T12:53:00;98322.44;;;24.51;41.32
66857;BME280;53766;50.280;19.160;2022-09-09T12:55:31;98322.44;;;24.51;41.28
66857;BME280;53766;50.280;19.160;2022-09-09T12:58:01;98325.84;;;24.47;41.02
66857;BME280;53766;50.280;19.160;2022-09-09T13:00:33;98321.72;;;24.39;40.62
66857;BME280;53766;50.280;19.160;2022-09-09T13:03:13;98321.53;;;24.29;40.76
66857;BME280;53766;50.280;19.160;2022-09-09T13:05:42;98329.53;;;24.23;40.28
66857;BME280;53766;50.280;19.160;2022-09-09T13:08:11;98325.28;;;24.28;40.59
66857;BME280;53766;50.280;19.160;2022-09-09T13:10:46;98327.41;;;24.26;40.67
66857;BME280;53766;50.280;19.160;2022-09-09T13:13:32;98331.16;;;24.25;40.12
66857;BME280;53766;50.280;19.160;2022-09-09T13:16:04;98317.13;;;24.22;40.65
66857;BME280;53766;50.280;19.160;2022-09-09T13:18:36;98319.34;;;24.26;40.75
66857;BME280;53766;50.280;19.160;2022-09-09T13:21:05;98318.63;;;24.30;40.94
66857;BME280;53766;50.280;19.160;2022-09-09T13:23:34;98310.78;;;24.29;40.70
66857;BME280;53766;50.280;19.160;2022-09-09T13:26:06;98310.84;;;24.34;40.99
66857;BME280;53766;50.280;19.160;2022-09-09T13:28:34;98308.78;;;24.41;41.18
66857;BME280;53766;50.280;19.160;2022-09-09T13:31:20;98307.19;;;24.40;41.25
66857;BME280;53766;50.280;19.160;2022-09-09T13:33:48;98304.41;;;24.35;41.18
66857;BME280;53766;50.280;19.160;2022-09-09T13:36:15;98310.38;;;24.37;40.97
66857;BME280;53766;50.280;19.160;2022-09-09T13:41:19;98299.34;;;24.38;41.04
66857;BME280;53766;50.280;19.160;2022-09-09T13:43:48;98297.72;;;24.37;41.30
66857;BME280;53766;50.280;19.160;2022-09-09T13:46:36;98295.59;;;24.39;41.30
66857;BME280;53766;50.280;19.160;2022-09-09T13:51:45;98292.81;;;24.34;41.74
66857;BME280;53766;50.280;19.160;2022-09-09T13:54:15;98294.63;;;24.29;41.17
66857;BME280;53766;50.280;19.160;2022-09-09T13:56:43;98292.25;;;24.32;40.99
66857;BME280;53766;50.280;19.160;2022-09-09T13:59:16;98287.25;;;24.41;41.61
66857;BME280;53766;50.280;19.160;2022-09-09T14:01:46;98283.59;;;24.47;41.42
66857;BME280;53766;50.280;19.160;2022-09-09T14:04:13;98283.72;;;24.52;41.22
66857;BME280;53766;50.280;19.160;2022-09-09T14:06:41;98284.84;;;24.56;41.48
66857;BME280;53766;50.280;19.160;2022-09-09T14:09:13;98277.31;;;24.58;41.65
66857;BME280;53766;50.280;19.160;2022-09-09T14:11:44;98272.50;;;24.60;41.45
66857;BME280;53766;50.280;19.160;2022-09-09T14:14:13;98268.25;;;24.64;41.24
66857;BME280;53766;50.280;19.160;2022-09-09T14:16:40;98268.34;;;24.70;41.23
66857;BME280;53766;50.280;19.160;2022-09-09T14:19:08;98264.56;;;24.71;41.41
66857;BME280;53766;50.280;19.160;2022-09-09T14:21:36;98262.44;;;24.73;41.29
66857;BME280;53766;50.280;19.160;2022-09-09T14:24:04;98262.44;;;24.73;41.27
66857;BME280;53766;50.280;19.160;2022-09-09T14:26:32;98257.03;;;24.73;41.52
66857;BME280;53766;50.280;19.160;2022-09-09T14:28:59;98255.16;;;24.73;41.42
66857;BME280;53766;50.280;19.160;2022-09-09T14:31:29;98255.72;;;24.75;41.74
66857;BME280;53766;50.280;19.160;2022-09-09T14:33:56;98251.16;;;24.76;41.71
66857;BME280;53766;50.280;19.160;2022-09-09T14:36:24;98251.72;;;24.78;41.68
66857;BME280;53766;50.280;19.160;2022-09-09T14:38:51;98251.16;;;24.76;41.70
66857;BME280;53766;50.280;19.160;2022-09-09T14:41:19;98254.88;;;24.70;41.43
66857;BME280;53766;50.280;19.160;2022-09-09T14:43:49;98247.25;;;24.67;40.86
66857;BME280;53766;50.280;19.160;2022-09-09T14:46:19;98253.16;;;24.63;40.61
66857;BME280;53766;50.280;19.160;2022-09-09T14:48:47;98249.84;;;24.56;40.70
66857;BME280;53766;50.280;19.160;2022-09-09T14:51:20;98253.03;;;24.53;40.71
66857;BME280;53766;50.280;19.160;2022-09-09T14:53:52;98255.47;;;24.55;40.84
66857;BME280;53766;50.280;19.160;2022-09-09T14:56:22;98250.38;;;24.58;41.09
66857;BME280;53766;50.280;19.160;2022-09-09T14:58:53;98248.59;;;24.64;41.33
66857;BME280;53766;50.280;19.160;2022-09-09T15:01:23;98254.28;;;24.68;41.64
66857;BME280;53766;50.280;19.160;2022-09-09T15:03:55;98256.72;;;24.69;41.66
66857;BME280;53766;50.280;19.160;2022-09-09T15:06:24;98254.59;;;24.71;41.99
66857;BME280;53766;50.280;19.160;2022-09-09T15:08:53;98257.03;;;24.73;42.31
66857;BME280;53766;50.280;19.160;2022-09-09T15:11:21;98257.03;;;24.73;42.41
66857;BME280;53766;50.280;19.160;2022-09-09T15:13:52;98256.00;;;24.74;42.64
66857;BME280;53766;50.280;19.160;2022-09-09T15:16:25;98254.91;;;24.75;42.51